Time;durP1;ratioP1;P1;durP2;ratioP2;P2;SDS_P1;SDS_P2;PMS_P1;PMS_P2;Temp;Humidity;BMP_temperature;BMP_pressure;BME280_temperature;BME280_humidity;BME280_pressure;Samples;Min_cycle;Max_cycle;Signal;HPM_P1;HPM_P2
2022/01/28 00:05:00;;;;;;;4.27;1.10;;;4.00;99.90;;;4.69;100.00;-19886.50;5024918;28;20231;-63
2022/01/28 00:07:28;;;;;;;3.67;1.13;;;3.90;99.90;;;4.86;100.00;-19892.47;5023088;28;20220;-63
2022/01/28 00:09:57;;;;;;;3.47;1.20;;;4.10;99.90;;;4.83;100.00;-19891.44;5022251;28;20222;-63
2022/01/28 00:12:28;;;;;;;4.43;1.57;;;4.10;99.90;;;4.74;100.00;-19888.38;5016614;28;20781;-63
2022/01/28 00:15:05;;;;;;;5.27;1.17;;;4.10;99.90;;;4.77;100.00;-19889.41;5026380;28;20637;-63
2022/01/28 00:37:25;;;;;;;6.33;1.70;;;4.30;99.90;;;5.04;100.00;-19898.47;5020057;28;20664;-63
2022/01/28 00:39:54;;;;;;;6.20;1.43;;;4.30;99.90;;;5.09;100.00;-19900.00;5015515;28;20232;-64
2022/01/28 00:42:22;;;;;;;4.17;1.33;;;4.40;99.90;;;5.10;100.00;-19900.50;5016797;28;20235;-64
2022/01/28 00:44:51;;;;;;;5.83;1.50;;;4.40;99.90;;;5.17;100.00;-19902.91;5028606;28;20576;-63
2022/01/28 00:47:19;;;;;;;4.40;1.50;;;4.40;99.90;;;5.12;100.00;-19901.03;5018487;28;20260;-63
2022/01/28 00:49:48;;;;;;;5.63;1.43;;;4.40;99.90;;;5.20;100.00;-19903.75;5028625;28;20341;-63
2022/01/28 00:52:16;;;;;;;6.37;1.50;;;4.50;99.90;;;5.35;100.00;-19908.88;5029769;28;20263;-63
2022/01/28 00:54:45;;;;;;;6.33;2.03;;;4.50;99.90;;;5.23;100.00;-19904.78;5025321;28;20259;-63
2022/01/28 00:57:13;;;;;;;3.60;1.07;;;4.50;99.90;;;5.40;100.00;-19910.75;5024706;28;20726;-64
2022/01/28 00:59:41;;;;;;;5.53;1.50;;;4.60;99.90;;;5.50;100.00;-19914.00;5025914;28;20229;-63
2022/01/28 01:02:15;;;;;;;6.83;1.50;;;4.60;99.90;;;5.67;100.00;-19919.81;5029965;28;20716;-64
2022/01/28 01:04:44;;;;;;;7.20;1.27;;;4.70;99.90;;;5.60;100.00;-19917.44;5026397;28;20797;-63
2022/01/28 01:07:13;;;;;;;2.37;1.13;;;4.80;99.90;;;5.56;100.00;-19916.06;5029783;28;20236;-62
2022/01/28 01:09:41;;;;;;;4.10;2.17;;;4.80;99.90;;;5.59;100.00;-19917.09;5030709;28;20236;-62
2022/01/28 01:12:11;;;;;;;4.17;1.20;;;4.80;99.90;;;5.62;100.00;-19918.13;5024032;28;20194;-62
2022/01/28 01:14:40;;;;;;;5.17;1.30;;;4.80;99.90;;;5.62;100.00;-19918.13;5024286;28;20213;-63
2022/01/28 01:17:20;;;;;;;5.60;1.27;;;4.80;99.90;;;5.64;100.00;-19918.97;5023678;28;20229;-64
2022/01/28 01:19:54;;;;;;;6.67;1.37;;;4.80;99.90;;;5.58;100.00;-19916.75;5024923;28;20290;-63
2022/01/28 01:22:24;;;;;;;3.03;1.10;;;4.80;99.90;;;5.48;100.00;-19913.50;5030209;28;20892;-63
2022/01/28 01:25:03;;;;;;;4.37;1.00;;;4.80;99.90;;;5.51;100.00;-19914.53;5028771;28;20720;-64
2022/01/28 01:27:31;;;;;;;7.73;1.60;;;4.80;99.90;;;5.72;100.00;-19921.69;5019101;28;20229;-62
2022/01/28 01:29:59;;;;;;;5.07;1.30;;;4.80;99.90;;;5.73;100.00;-19922.03;5029678;28;20773;-63
2022/01/28 01:32:28;;;;;;;6.03;1.20;;;4.80;99.90;;;5.73;100.00;-19921.88;4995086;28;20235;-62
2022/01/28 01:34:58;;;;;;;6.77;1.20;;;4.90;99.90;;;5.69;100.00;-19920.69;5005092;28;20739;-62
2022/01/28 01:37:26;;;;;;;3.30;1.10;;;4.90;99.90;;;5.73;100.00;-19922.03;5015537;28;20605;-63
2022/01/28 01:39:56;;;;;;;6.17;1.20;;;4.90;99.90;;;5.63;100.00;-19918.63;5029452;28;20236;-62
2022/01/28 01:42:32;;;;;;;7.97;1.40;;;4.90;99.90;;;5.86;100.00;-19926.31;5017315;28;20601;-63
2022/01/28 01:53:39;;;;;;;5.53;1.10;;;4.90;99.90;;;5.71;100.00;-19921.19;5071943;28;20298;-63
2022/01/28 01:56:09;;;;;;;3.37;1.00;;;4.90;99.90;;;5.62;100.00;-19918.28;5084381;28;20257;-63
2022/01/28 01:58:38;;;;;;;4.30;1.30;;;4.90;99.90;;;5.74;100.00;-19922.38;5076523;28;20323;-63
2022/01/28 02:01:06;;;;;;;4.03;1.20;;;4.90;99.90;;;5.80;100.00;-19924.28;5080390;28;20602;-63
2022/01/28 02:03:36;;;;;;;5.13;1.00;;;4.90;99.90;;;5.57;100.00;-19916.41;5078422;28;20715;-63
2022/01/28 02:06:06;;;;;;;5.53;1.10;;;4.90;99.90;;;5.60;100.00;-19917.59;5054682;28;20220;-63
2022/01/28 02:08:35;;;;;;;2.30;1.00;;;4.80;99.90;;;5.74;100.00;-19922.22;5064451;28;20655;-63
2022/01/28 02:11:04;;;;;;;2.33;1.17;;;4.80;99.90;;;5.74;100.00;-19922.22;5061988;28;20256;-63
2022/01/28 02:13:38;;;;;;;6.60;1.37;;;4.80;99.90;;;5.58;100.00;-19916.91;5063550;28;20648;-63
2022/01/28 02:16:09;;;;;;;5.30;1.13;;;4.80;99.90;;;5.66;100.00;-19919.47;5060239;28;20235;-63
2022/01/28 02:18:38;;;;;;;4.33;1.23;;;4.80;99.90;;;5.66;100.00;-19919.66;5062203;28;20921;-62
2022/01/28 02:21:10;;;;;;;3.57;1.23;;;4.80;99.90;;;5.66;100.00;-19919.66;5063830;28;20213;-63
2022/01/28 02:23:40;;;;;;;3.97;1.30;;;4.80;99.90;;;5.60;100.00;-19917.44;5064593;28;20196;-62
2022/01/28 02:26:13;;;;;;;6.47;1.40;;;4.80;99.90;;;5.79;100.00;-19924.09;5063631;28;20602;-62
2022/01/28 02:28:43;;;;;;;5.50;1.93;;;4.90;99.90;;;5.70;100.00;-19920.84;5062444;28;20233;-63
2022/01/28 02:31:12;;;;;;;8.37;1.93;;;4.90;99.90;;;5.72;100.00;-19921.53;5073293;28;20318;-64
2022/01/28 02:33:41;;;;;;;7.30;1.60;;;4.90;99.90;;;5.78;100.00;-19923.59;5084296;28;20232;-63
2022/01/28 02:36:11;;;;;;;4.43;1.60;;;4.90;99.90;;;5.86;100.00;-19926.50;5078157;28;20200;-64
2022/01/28 02:38:39;;;;;;;5.80;1.60;;;5.00;99.90;;;5.91;100.00;-19928.03;5075231;28;20320;-63
2022/01/28 02:41:08;;;;;;;7.03;1.60;;;5.00;99.90;;;5.77;100.00;-19923.41;5083830;28;20790;-63
2022/01/28 02:43:41;;;;;;;9.03;2.10;;;5.00;99.90;;;5.83;100.00;-19925.31;5070923;28;20790;-63
2022/01/28 02:46:13;;;;;;;8.23;1.67;;;5.00;99.90;;;5.72;100.00;-19921.69;5063079;28;20225;-63
2022/01/28 02:48:52;;;;;;;6.40;1.57;;;5.00;99.90;;;5.65;100.00;-19919.16;5063070;28;20318;-63
2022/01/28 02:51:23;;;;;;;6.97;1.73;;;4.90;99.90;;;5.53;100.00;-19915.22;5063010;28;20216;-64
2022/01/28 02:53:54;;;;;;;5.57;1.67;;;4.80;99.90;;;5.47;100.00;-19912.97;5074448;28;20188;-63
2022/01/28 02:56:34;;;;;;;8.30;2.47;;;4.80;99.90;;;5.47;100.00;-19913.16;5063588;28;20232;-63
2022/01/28 02:59:07;;;;;;;7.63;2.00;;;4.80;99.90;;;5.59;100.00;-19917.25;5046791;28;20232;-63
2022/01/28 03:01:36;;;;;;;6.83;2.00;;;4.80;99.90;;;5.68;100.00;-19920.16;5058159;28;20618;-63
2022/01/28 03:04:06;;;;;;;7.40;1.90;;;4.80;99.90;;;5.57;100.00;-19916.56;5069331;28;20224;-65
2022/01/28 03:06:36;;;;;;;8.47;1.40;;;4.90;99.90;;;5.58;100.00;-19916.91;5068930;28;20228;-64
2022/01/28 03:09:13;;;;;;;6.17;1.60;;;4.90;99.90;;;5.38;100.00;-19909.91;5069138;28;20571;-63
2022/01/28 03:11:49;;;;;;;8.70;2.10;;;4.80;99.90;;;5.43;100.00;-19911.63;5049033;28;20560;-63
2022/01/28 03:14:34;;;;;;;5.73;1.70;;;4.70;99.90;;;5.29;100.00;-19906.84;5050351;28;20227;-63
2022/01/28 03:17:11;;;;;;;3.67;1.47;;;4.70;99.90;;;5.21;100.00;-19904.09;5047082;28;20223;-62
2022/01/28 03:19:48;;;;;;;5.27;2.00;;;4.60;99.90;;;5.26;100.00;-19905.81;5049318;28;20239;-62
2022/01/28 03:22:18;;;;;;;6.57;1.80;;;4.60;99.90;;;5.26;100.00;-19905.81;5059609;28;20234;-62
2022/01/28 03:24:51;;;;;;;8.20;1.87;;;4.60;99.90;;;5.41;100.00;-19911.09;5069112;28;20223;-62
2022/01/28 03:27:41;;;;;;;6.57;1.67;;;4.60;99.90;;;5.43;100.00;-19911.78;5066194;28;20593;-62
2022/01/28 03:30:10;;;;;;;7.87;2.13;;;4.60;99.90;;;5.62;100.00;-19918.13;5058888;28;20667;-63
2022/01/28 03:32:39;;;;;;;6.03;1.40;;;4.70;99.90;;;5.41;100.00;-19911.09;5050118;28;20682;-62
2022/01/28 03:35:28;;;;;;;3.77;1.27;;;4.60;99.90;;;5.37;100.00;-19909.56;5068700;28;20937;-62
2022/01/28 03:38:00;;;;;;;5.07;1.67;;;4.60;99.90;;;5.36;100.00;-19909.22;5052620;28;20233;-63
2022/01/28 03:40:36;;;;;;;4.13;1.20;;;4.60;99.90;;;5.47;100.00;-19912.97;5043956;28;20315;-62
2022/01/28 03:43:05;;;;;;;6.20;1.60;;;4.60;99.90;;;5.54;100.00;-19915.38;5046989;28;20307;-63
2022/01/28 03:45:34;;;;;;;4.27;1.40;;;4.60;99.90;;;5.31;100.00;-19907.69;5048727;28;20232;-63
2022/01/28 03:48:04;;;;;;;4.00;1.30;;;4.60;99.90;;;5.36;100.00;-19909.41;5047254;28;20224;-63
2022/01/28 03:50:34;;;;;;;6.43;1.70;;;4.60;99.90;;;5.48;100.00;-19913.50;5031935;28;20668;-64
2022/01/28 03:53:06;;;;;;;3.07;1.40;;;4.50;99.90;;;5.51;100.00;-19914.34;5032521;28;20230;-63
2022/01/28 03:55:35;;;;;;;6.43;1.57;;;4.60;99.90;;;5.36;100.00;-19909.22;5038843;28;20227;-63
2022/01/28 03:58:04;;;;;;;6.40;1.57;;;4.60;99.90;;;5.31;100.00;-19907.69;5035574;28;20228;-65
2022/01/28 04:00:33;;;;;;;7.13;1.77;;;4.60;99.90;;;5.33;100.00;-19908.38;5032305;28;20233;-64
2022/01/28 04:03:09;;;;;;;8.13;1.63;;;4.60;99.90;;;5.40;100.00;-19910.75;5041634;28;20691;-64
2022/01/28 04:11:29;;;;;;;6.77;1.40;;;4.80;99.90;;;5.57;100.00;-19916.56;5046816;28;20617;-64
2022/01/28 04:14:06;;;;;;;5.53;1.60;;;4.80;99.90;;;5.60;100.00;-19917.59;5047637;28;20223;-64
2022/01/28 04:19:18;;;;;;;8.53;1.97;;;4.90;99.90;;;5.72;100.00;-19921.69;5047392;28;20229;-63
2022/01/28 04:21:47;;;;;;;7.70;1.80;;;4.90;99.90;;;5.60;100.00;-19917.44;5046562;28;20242;-63
2022/01/28 04:24:17;;;;;;;6.87;1.80;;;4.80;99.90;;;5.55;100.00;-19915.88;5049526;28;20211;-64
2022/01/28 04:26:46;;;;;;;11.57;2.43;;;4.90;99.90;;;5.62;100.00;-19918.13;5069570;28;20675;-64
2022/01/28 04:29:15;;;;;;;8.27;1.67;;;4.80;99.90;;;5.58;100.00;-19916.91;5067438;28;20240;-63
2022/01/28 04:31:46;;;;;;;7.57;1.63;;;4.90;99.90;;;5.68;100.00;-19920.16;5067133;28;20972;-63
2022/01/28 04:34:15;;;;;;;7.20;1.80;;;4.90;99.90;;;5.66;100.00;-19919.66;5067590;28;20254;-63
2022/01/28 04:36:53;;;;;;;8.73;2.20;;;4.90;99.90;;;5.60;100.00;-19917.44;5062080;28;20781;-64
2022/01/28 04:39:29;;;;;;;7.07;2.20;;;4.90;99.90;;;5.68;100.00;-19920.34;5047211;28;20723;-63
2022/01/28 04:42:05;;;;;;;7.57;1.80;;;4.90;99.90;;;5.64;100.00;-19918.78;5040584;28;20220;-64
2022/01/28 04:44:43;;;;;;;9.47;1.73;;;4.90;99.90;;;5.67;100.00;-19919.81;5043126;28;20341;-64
2022/01/28 04:47:17;;;;;;;9.40;1.80;;;4.90;99.90;;;5.77;100.00;-19923.41;5047628;28;20236;-64
2022/01/28 04:49:56;;;;;;;5.60;1.60;;;5.00;99.90;;;5.69;100.00;-19920.69;5061182;28;20226;-63
2022/01/28 04:52:48;;;;;;;8.30;1.70;;;4.90;99.90;;;5.77;100.00;-19923.25;5063220;28;20255;-64
2022/01/28 04:55:40;;;;;;;6.90;1.73;;;4.90;99.90;;;5.74;100.00;-19922.22;5058364;28;20232;-61
2022/01/28 04:58:25;;;;;;;6.63;1.80;;;4.90;99.90;;;5.84;100.00;-19925.81;5050215;28;20795;-63
2022/01/28 05:01:09;;;;;;;4.00;1.90;;;5.00;99.90;;;5.85;100.00;-19925.97;5051973;28;20787;-62
2022/01/28 05:03:57;;;;;;;7.93;1.87;;;5.00;99.90;;;5.76;100.00;-19923.06;5048362;28;20251;-62
2022/01/28 05:06:48;;;;;;;7.97;2.03;;;5.00;99.90;;;5.79;100.00;-19924.09;5047333;28;20267;-61
2022/01/28 05:12:45;;;;;;;10.20;2.57;;;5.00;99.90;;;5.84;100.00;-19925.63;5045654;28;20192;-62
2022/01/28 05:24:07;;;;;;;8.20;2.00;;;5.00;99.90;;;5.65;100.00;-19919.31;5046703;28;20228;-63
2022/01/28 05:26:37;;;;;;;8.37;2.10;;;5.00;99.90;;;5.57;100.00;-19916.56;5035939;28;20224;-62
2022/01/28 05:29:07;;;;;;;7.90;2.50;;;4.90;99.90;;;5.55;100.00;-19915.72;5064292;28;20230;-64
2022/01/28 05:31:35;;;;;;;8.43;2.33;;;4.80;99.90;;;5.46;100.00;-19912.81;5066642;28;20235;-63
2022/01/28 05:34:03;;;;;;;7.97;2.03;;;4.70;99.90;;;5.44;100.00;-19911.97;5066242;28;20223;-63
2022/01/28 05:36:31;;;;;;;5.80;1.90;;;4.70;99.90;;;5.48;100.00;-19913.34;5067039;28;20224;-64
2022/01/28 05:38:59;;;;;;;7.97;2.33;;;4.70;99.90;;;5.52;100.00;-19914.88;5067785;28;20263;-62
2022/01/28 05:41:27;;;;;;;7.13;1.97;;;4.70;99.90;;;5.43;100.00;-19911.78;5066617;28;20244;-63
2022/01/28 05:43:55;;;;;;;8.67;2.00;;;4.70;99.90;;;5.20;100.00;-19903.75;5054813;28;20802;-63
2022/01/28 05:46:28;;;;;;;6.47;2.03;;;4.60;99.90;;;5.27;100.00;-19906.31;5043334;28;20282;-63
2022/01/28 05:48:57;;;;;;;6.97;1.73;;;4.50;99.90;;;5.09;100.00;-19900.16;5051506;28;20336;-63
2022/01/28 05:51:26;;;;;;;7.10;2.13;;;4.40;99.90;;;5.11;100.00;-19900.84;5046602;28;20223;-64
2022/01/28 05:53:57;;;;;;;9.17;2.07;;;4.40;99.90;;;4.97;100.00;-19896.22;5032658;28;20218;-64
2022/01/28 05:56:26;;;;;;;8.60;2.13;;;4.30;99.90;;;4.92;100.00;-19894.34;5045775;28;20889;-63
2022/01/28 05:58:55;;;;;;;8.40;2.00;;;4.30;99.90;;;4.78;100.00;-19889.75;5047927;28;20224;-63
2022/01/28 06:01:25;;;;;;;9.73;2.00;;;4.20;99.90;;;4.81;100.00;-19890.78;5046517;28;20256;-63
2022/01/28 06:03:54;;;;;;;10.43;2.60;;;4.10;99.90;;;4.96;100.00;-19895.91;5039091;28;20803;-63
2022/01/28 06:06:23;;;;;;;6.47;1.93;;;4.20;99.90;;;4.96;100.00;-19895.91;5039685;28;20351;-63
2022/01/28 06:08:54;;;;;;;5.63;1.80;;;4.20;99.90;;;4.71;100.00;-19887.34;5038914;28;20235;-67
2022/01/28 06:11:24;;;;;;;7.00;1.63;;;4.10;99.90;;;4.59;100.00;-19883.25;5042066;28;20238;-63
2022/01/28 06:13:53;;;;;;;6.13;1.80;;;4.10;99.90;;;4.60;100.00;-19883.59;5045470;28;20229;-63
2022/01/28 06:16:22;;;;;;;11.60;1.77;;;4.00;99.90;;;4.52;100.00;-19880.84;5057802;28;20229;-63
2022/01/28 06:18:51;;;;;;;3.83;1.40;;;4.00;99.90;;;4.45;100.00;-19878.28;5066469;28;20234;-63
2022/01/28 06:21:21;;;;;;;8.77;1.87;;;3.90;99.90;;;4.49;100.00;-19879.81;5062570;28;20199;-63
2022/01/28 06:23:51;;;;;;;7.77;1.50;;;3.80;99.90;;;4.44;100.00;-19878.13;5063804;28;20207;-64
2022/01/28 06:26:20;;;;;;;5.77;1.70;;;3.80;99.90;;;4.30;100.00;-19873.16;5047450;28;20222;-63
2022/01/28 06:28:49;;;;;;;6.40;1.57;;;3.70;99.90;;;4.44;100.00;-19877.94;5061511;28;20221;-63
2022/01/28 06:31:18;;;;;;;5.87;1.60;;;3.70;99.90;;;4.47;100.00;-19879.16;5065419;28;20219;-63
2022/01/28 06:33:51;;;;;;;6.60;2.07;;;3.70;99.90;;;4.63;100.00;-19884.59;5068546;28;20732;-63
2022/01/28 06:36:21;;;;;;;7.50;2.20;;;3.80;99.90;;;4.80;100.00;-19890.41;5071054;28;20701;-63
2022/01/28 06:38:49;;;;;;;5.97;2.20;;;3.90;99.90;;;4.88;100.00;-19893.00;5071112;28;20195;-63
2022/01/28 06:41:18;;;;;;;6.00;2.10;;;4.00;99.90;;;4.84;100.00;-19891.63;5069709;28;20880;-63
2022/01/28 06:43:46;;;;;;;9.30;2.67;;;4.10;99.90;;;4.83;100.00;-19891.44;5070203;28;20239;-63
2022/01/28 06:46:15;;;;;;;10.10;2.00;;;4.10;99.90;;;4.97;100.00;-19896.22;5069329;28;20223;-64
2022/01/28 06:48:43;;;;;;;6.67;2.10;;;4.10;99.90;;;5.05;100.00;-19898.81;5070176;28;20235;-64
2022/01/28 06:51:13;;;;;;;11.47;2.10;;;4.20;99.90;;;5.00;100.00;-19897.09;5069340;28;20200;-64
2022/01/28 06:53:42;;;;;;;6.83;2.00;;;4.20;99.90;;;5.06;100.00;-19898.97;5070643;28;20674;-64
2022/01/28 06:56:10;;;;;;;8.30;2.10;;;4.20;99.90;;;5.26;100.00;-19905.81;5068919;28;20546;-64
2022/01/28 06:58:38;;;;;;;10.40;2.30;;;4.30;99.90;;;5.25;100.00;-19905.47;5066219;28;20229;-63
2022/01/28 07:01:06;;;;;;;8.57;2.57;;;4.30;99.90;;;5.36;100.00;-19909.22;5060002;28;20251;-64
2022/01/28 07:03:35;;;;;;;8.23;2.47;;;4.40;99.90;;;5.31;100.00;-19907.53;5050835;28;20231;-62
2022/01/28 07:06:03;;;;;;;9.40;2.47;;;4.40;99.90;;;5.31;100.00;-19907.53;5055601;28;20319;-64
2022/01/28 07:08:32;;;;;;;9.70;2.53;;;4.40;99.90;;;5.23;100.00;-19904.94;5049164;28;20208;-69
2022/01/28 07:11:01;;;;;;;11.53;2.30;;;4.50;99.90;;;5.22;100.00;-19904.44;5048131;28;20291;-70
2022/01/28 07:13:29;;;;;;;11.93;2.40;;;4.40;99.90;;;5.39;100.00;-19910.44;5047877;28;20255;-69
2022/01/28 07:15:57;;;;;;;8.00;2.20;;;4.50;99.90;;;5.36;100.00;-19909.22;5049893;28;20282;-69
2022/01/28 07:18:25;;;;;;;9.43;2.30;;;4.50;99.90;;;5.34;100.00;-19908.72;5049526;28;20233;-69
2022/01/28 07:20:53;;;;;;;7.20;2.23;;;4.50;99.90;;;5.31;100.00;-19907.53;5050239;28;20236;-69
2022/01/28 07:23:21;;;;;;;6.67;2.10;;;4.50;99.90;;;5.38;100.00;-19910.06;5049112;28;20301;-71
2022/01/28 07:25:51;;;;;;;11.03;2.67;;;4.50;99.90;;;5.42;100.00;-19911.28;5064690;28;20338;-68
2022/01/28 07:28:19;;;;;;;13.43;2.47;;;4.60;99.90;;;5.51;100.00;-19914.53;5068406;28;20266;-70
2022/01/28 07:30:47;;;;;;;4.97;2.03;;;4.60;99.90;;;5.50;100.00;-19914.00;5068852;28;20320;-68
2022/01/28 07:33:15;;;;;;;8.73;2.57;;;4.60;99.90;;;5.53;100.00;-19915.22;5069424;28;20212;-70
2022/01/28 07:35:43;;;;;;;7.17;2.10;;;4.70;99.90;;;5.58;100.00;-19916.91;5070122;28;20216;-70
2022/01/28 07:38:11;;;;;;;9.67;2.83;;;4.70;99.90;;;5.60;100.00;-19917.44;5069785;28;20258;-70
2022/01/28 07:40:39;;;;;;;13.20;2.47;;;4.70;99.90;;;5.52;100.00;-19914.69;5058541;28;20228;-68
2022/01/28 07:43:09;;;;;;;7.90;2.40;;;4.70;99.90;;;5.30;100.00;-19907.19;5068853;28;20230;-69
2022/01/28 07:45:37;;;;;;;11.17;2.03;;;4.60;99.90;;;5.34;100.00;-19908.53;5067358;28;20231;-69
2022/01/28 07:48:05;;;;;;;10.00;2.40;;;4.60;99.90;;;5.35;100.00;-19909.06;5049462;28;20208;-70
2022/01/28 07:50:34;;;;;;;9.77;2.30;;;4.60;99.90;;;5.30;100.00;-19907.19;5050323;28;20306;-71
2022/01/28 07:53:03;;;;;;;10.77;2.40;;;4.60;99.90;;;5.41;100.00;-19911.09;5052062;28;20238;-69
2022/01/28 07:55:32;;;;;;;11.80;2.47;;;4.60;99.90;;;5.20;100.00;-19903.94;5048898;28;20278;-69
2022/01/28 07:58:00;;;;;;;11.37;2.43;;;4.50;99.90;;;5.24;100.00;-19905.13;5048550;28;20264;-68
2022/01/28 08:00:29;;;;;;;8.37;2.63;;;4.50;99.90;;;5.32;100.00;-19907.84;5048454;28;20232;-71
2022/01/28 08:02:59;;;;;;;8.97;2.37;;;4.50;99.90;;;5.23;100.00;-19904.94;5045022;28;20197;-69
2022/01/28 08:05:29;;;;;;;9.57;2.43;;;4.50;99.90;;;5.32;100.00;-19907.84;5068563;28;20226;-68
2022/01/28 08:07:58;;;;;;;12.07;2.73;;;4.50;99.90;;;5.39;100.00;-19910.44;5068678;28;20717;-63
2022/01/28 08:10:32;;;;;;;12.40;2.50;;;4.60;99.90;;;5.30;100.00;-19907.34;5068367;28;20219;-63
2022/01/28 08:13:03;;;;;;;13.10;2.60;;;4.50;99.90;;;5.48;100.00;-19913.34;5067571;28;20721;-63
2022/01/28 08:15:34;;;;;;;8.67;2.30;;;4.60;99.90;;;5.27;100.00;-19906.16;5068282;28;20710;-62
2022/01/28 08:18:03;;;;;;;8.83;2.80;;;4.60;99.90;;;5.31;100.00;-19907.69;5068503;28;20196;-64
2022/01/28 08:20:31;;;;;;;10.40;2.60;;;4.60;99.90;;;5.29;100.00;-19906.84;5064934;28;20294;-63
2022/01/28 08:22:59;;;;;;;10.07;2.50;;;4.60;99.90;;;5.42;100.00;-19911.44;5068117;28;20253;-63
2022/01/28 08:25:32;;;;;;;12.20;2.37;;;4.60;99.90;;;5.52;100.00;-19914.69;5056425;28;20311;-63
2022/01/28 08:28:02;;;;;;;8.23;2.23;;;4.70;99.90;;;5.62;100.00;-19918.13;5056083;28;20310;-63
2022/01/28 08:30:37;;;;;;;7.03;2.07;;;4.80;99.90;;;5.72;100.00;-19921.69;5068152;28;20255;-63
2022/01/28 08:33:07;;;;;;;7.47;2.30;;;4.80;99.90;;;6.01;100.00;-19931.44;5067400;28;20198;-63
2022/01/28 08:35:38;;;;;;;7.23;1.90;;;4.90;99.90;;;6.32;100.00;-19942.03;5068470;28;20197;-63
2022/01/28 08:38:14;;;;;;;8.10;2.23;;;5.10;99.90;;;6.31;100.00;-19941.69;5067485;28;20247;-65
2022/01/28 08:40:45;;;;;;;14.03;2.13;;;5.20;99.90;;;6.05;100.00;-19932.97;5067840;28;20224;-64
2022/01/28 08:43:13;;;;;;;17.43;2.63;;;5.20;99.90;;;6.02;100.00;-19931.97;5067534;28;20252;-64
2022/01/28 08:45:43;;;;;;;6.57;1.97;;;5.10;99.90;;;5.99;100.00;-19930.94;5067356;28;20225;-64
2022/01/28 08:48:11;;;;;;;9.13;2.60;;;5.10;99.90;;;5.87;100.00;-19926.66;5067957;28;20192;-64
2022/01/28 08:50:40;;;;;;;14.23;2.57;;;5.00;99.90;;;5.89;100.00;-19927.53;5068381;28;20322;-64
2022/01/28 08:53:08;;;;;;;8.20;2.20;;;5.00;99.90;;;5.79;100.00;-19923.94;5067718;28;20662;-64
2022/01/28 08:55:37;;;;;;;8.63;3.43;;;5.00;99.90;;;5.78;100.00;-19923.59;5065317;28;20232;-64
2022/01/28 08:58:06;;;;;;;12.17;2.30;;;4.90;99.90;;;5.99;100.00;-19930.94;5048310;28;20236;-63
2022/01/28 09:00:34;;;;;;;10.50;2.63;;;5.00;99.90;;;6.20;100.00;-19937.94;5047089;28;20228;-63
2022/01/28 09:03:04;;;;;;;12.13;2.33;;;5.10;99.90;;;6.30;100.00;-19941.38;5048211;28;20201;-66
2022/01/28 09:05:33;;;;;;;5.93;2.00;;;5.20;99.90;;;6.10;100.00;-19934.53;5047960;28;20196;-63
2022/01/28 09:08:06;;;;;;;10.20;2.30;;;5.20;99.90;;;5.86;100.00;-19926.31;5047765;28;20766;-64
2022/01/28 09:10:37;;;;;;;10.73;2.53;;;5.10;99.90;;;6.02;100.00;-19931.78;5047475;28;20237;-63
2022/01/28 09:15:50;;;;;;;11.40;3.00;;;5.10;99.90;;;6.29;100.00;-19940.84;5045583;28;20335;-64
2022/01/28 09:18:20;;;;;;;13.13;2.83;;;5.20;99.90;;;6.42;100.00;-19945.28;5049517;28;20313;-64
2022/01/28 09:20:50;;;;;;;11.83;2.70;;;5.40;99.90;;;6.66;100.00;-19953.50;5068187;28;20197;-64
2022/01/28 09:23:19;;;;;;;11.13;2.67;;;5.40;99.90;;;6.59;100.00;-19951.09;5065813;28;20236;-64
2022/01/28 09:25:47;;;;;;;10.57;2.83;;;5.50;99.90;;;6.71;100.00;-19955.38;5061362;28;20243;-63
2022/01/28 09:28:16;;;;;;;9.93;2.83;;;5.60;99.90;;;6.70;100.00;-19955.03;5066239;28;20618;-67
2022/01/28 09:30:44;;;;;;;12.40;2.47;;;5.60;99.90;;;6.78;100.00;-19957.59;5060554;28;20255;-63
2022/01/28 09:33:12;;;;;;;11.30;3.07;;;5.70;99.90;;;6.77;100.00;-19957.25;5064845;28;20656;-64
2022/01/28 09:35:42;;;;;;;9.77;2.50;;;5.70;99.90;;;6.60;100.00;-19951.44;5043896;28;20224;-63
2022/01/28 09:38:11;;;;;;;9.13;2.73;;;5.60;99.90;;;6.48;100.00;-19947.50;5047020;28;20229;-65
2022/01/28 09:40:39;;;;;;;7.60;2.50;;;5.50;99.90;;;6.61;100.00;-19951.78;5042911;28;20287;-63
2022/01/28 09:43:08;;;;;;;7.30;2.50;;;5.60;99.90;;;6.60;100.00;-19951.44;5041405;28;20304;-64
2022/01/28 09:45:37;;;;;;;8.97;3.00;;;5.60;99.90;;;6.10;100.00;-19934.69;5049365;28;20220;-63
2022/01/28 09:48:06;;;;;;;8.20;2.57;;;5.40;99.90;;;5.58;100.00;-19916.75;5066613;28;20249;-63
2022/01/28 09:50:35;;;;;;;10.73;2.90;;;5.10;99.90;;;5.48;100.00;-19913.34;5067367;28;20305;-63
2022/01/28 09:53:04;;;;;;;6.40;2.50;;;4.90;99.90;;;5.62;100.00;-19918.28;5065881;28;20229;-64
2022/01/28 09:55:32;;;;;;;7.70;2.70;;;4.80;99.90;;;5.67;100.00;-19920.00;5065858;28;20254;-63
2022/01/28 09:58:01;;;;;;;7.63;2.53;;;4.80;99.90;;;5.35;100.00;-19908.88;5066447;28;20780;-63
2022/01/28 10:00:32;;;;;;;9.40;2.77;;;4.60;99.90;;;5.35;100.00;-19908.88;5066840;28;20227;-64
2022/01/28 10:03:03;;;;;;;9.13;2.60;;;4.50;99.90;;;5.22;100.00;-19904.44;5065980;28;20375;-63
2022/01/28 10:05:35;;;;;;;10.50;2.67;;;4.50;99.90;;;5.02;100.00;-19897.78;5066077;28;20221;-64
2022/01/28 10:08:12;;;;;;;11.57;2.30;;;4.30;99.90;;;5.12;100.00;-19901.19;5067038;28;20717;-64
2022/01/28 10:11:02;;;;;;;11.90;2.93;;;4.30;99.90;;;5.24;100.00;-19905.13;5069670;28;20223;-64
2022/01/28 10:13:38;;;;;;;10.27;3.03;;;4.40;99.90;;;5.49;100.00;-19913.66;5057860;28;20230;-64
2022/01/28 10:16:13;;;;;;;9.87;2.80;;;4.50;99.90;;;5.84;100.00;-19925.63;5056235;28;20226;-63
2022/01/28 10:18:49;;;;;;;10.83;2.57;;;4.70;99.90;;;5.99;100.00;-19930.75;5070761;28;20310;-63
2022/01/28 10:21:29;;;;;;;8.00;2.50;;;4.80;99.90;;;6.08;100.00;-19933.84;5071163;28;20201;-64
2022/01/28 10:24:15;;;;;;;7.63;2.40;;;5.00;99.90;;;6.03;100.00;-19932.31;5069601;28;20229;-65
2022/01/28 10:26:48;;;;;;;7.70;2.47;;;5.10;99.90;;;6.12;100.00;-19935.38;5060315;28;20243;-64
2022/01/28 10:29:19;;;;;;;7.77;2.37;;;5.10;99.90;;;6.32;100.00;-19941.88;5068498;28;20228;-64
2022/01/28 10:31:54;;;;;;;7.93;2.27;;;5.20;99.90;;;6.51;100.00;-19948.38;5069476;28;20223;-63
2022/01/28 10:34:27;;;;;;;12.70;3.37;;;5.30;99.90;;;6.47;100.00;-19947.19;5070337;28;20250;-64
2022/01/28 10:37:15;;;;;;;7.07;2.20;;;5.30;99.90;;;6.59;100.00;-19951.28;5070211;28;20243;-64
2022/01/28 10:39:50;;;;;;;9.80;2.37;;;5.40;99.90;;;6.78;100.00;-19957.75;5070645;28;20248;-64
2022/01/28 10:42:36;;;;;;;11.97;2.90;;;5.50;99.90;;;6.95;99.95;-19963.41;5069990;28;20248;-64
2022/01/28 10:45:11;;;;;;;10.73;2.77;;;5.70;99.90;;;6.77;99.67;-19957.44;5070462;28;20224;-63
2022/01/28 10:47:42;;;;;;;11.50;2.57;;;5.70;99.90;;;6.76;100.00;-19956.91;5070358;28;20756;-64
2022/01/28 10:50:24;;;;;;;12.60;2.70;;;5.80;99.90;;;6.79;97.99;-19958.13;5070437;28;20260;-64
2022/01/28 10:53:02;;;;;;;9.67;2.60;;;5.80;99.90;;;6.73;96.10;-19955.88;5070114;28;20224;-64
2022/01/28 10:55:35;;;;;;;14.60;2.97;;;5.70;99.90;;;6.79;98.21;-19957.94;5067065;28;20251;-64
2022/01/28 10:58:07;;;;;;;10.13;3.10;;;5.80;99.90;;;6.95;97.46;-19963.41;5069611;28;20220;-64
2022/01/28 11:00:38;;;;;;;12.50;3.27;;;5.80;99.90;;;6.98;99.12;-19964.59;5069737;28;20576;-63
2022/01/28 11:03:10;;;;;;;10.17;2.90;;;5.90;99.90;;;7.05;96.92;-19966.81;5062221;28;20194;-64
2022/01/28 11:05:40;;;;;;;9.30;2.53;;;5.90;99.90;;;7.00;98.41;-19965.28;5069576;28;20649;-63
2022/01/28 11:08:12;;;;;;;9.03;2.43;;;5.90;99.90;;;6.95;97.24;-19963.41;5069258;28;21223;-64
2022/01/28 11:10:43;;;;;;;12.27;3.20;;;5.90;99.90;;;6.68;97.82;-19954.19;5068968;28;20250;-64
2022/01/28 11:13:11;;;;;;;14.07;3.20;;;5.80;99.90;;;6.77;97.59;-19957.44;5068696;28;20232;-64
2022/01/28 11:15:39;;;;;;;9.23;2.20;;;5.80;99.90;;;6.94;97.03;-19963.25;5068664;28;20281;-64
2022/01/28 11:18:11;;;;;;;10.67;3.07;;;5.90;99.90;;;7.32;97.19;-19976.22;5068754;28;20612;-64
2022/01/28 11:20:46;;;;;;;10.70;3.10;;;6.00;99.90;;;7.58;92.33;-19984.78;5066891;28;20196;-64
2022/01/28 11:23:30;;;;;;;14.70;2.70;;;6.20;99.90;;;7.68;89.53;-19988.34;5069633;28;20557;-64
2022/01/28 11:26:18;;;;;;;10.53;2.90;;;6.30;99.90;;;7.76;90.30;-19990.91;5063055;28;20228;-64
2022/01/28 11:28:50;;;;;;;13.13;3.30;;;6.50;99.90;;;7.60;93.54;-19985.63;5060746;28;20274;-63
2022/01/28 11:31:45;;;;;;;12.90;3.33;;;6.40;99.90;;;7.55;91.99;-19983.91;5057564;28;20704;-63